Colwich, KS

5:39 AM CDT on August 20, 2014 (GMT -0500)
Westridge HOA | Change Station
CLOSE
Current Station
Personal Weather Station
Location: Wichita, KS
Elevation: 1365 ft
Nearby Weather Stations

Elev 1365 ft 37.73 °N, 97.48 °W | Updated 14 minutes ago

Scattered Clouds
Scattered Clouds
73.2 °F
Feels Like 72 °F
N
3.2
Wind Variable Wind from West

Today
High -- | Low -- °F
--% Chance of Precip.
Yesterday
High -- | Low -- °F
Precip. -- in
6:50 AM 8:16 PM
Waning Crescent, 22% visible
Pressure 29.78 in
Visibility 10.0 miles
Clouds Scattered Clouds 25000 ft
Heat Index 72 °F
Dew Point 68 °F
Humidity 85%
Rainfall 0.00 in
Snow Depth Not available.
UV 0 out of 12
Pollen 10.50 out of 12
Air Quality Not available.
Flu Activity Not available.
METAR KICT 200953Z 17009KT 10SM SCT250 23/19 A2984 RMK AO2 SLP085 T02330194

More Conditions Fewer Conditions

Pressure 29.78 in
Visibility 10.0 miles
Clouds Scattered Clouds 25000 ft
Heat Index 72 °F
Dew Point 68 °F
Humidity 85%
Rainfall 0.00 in
Snow Depth Not available.
UV 0 out of 12
Pollen 10.50 out of 12
Air Quality Not available.
Flu Activity Not available.
METAR KICT 200953Z 17009KT 10SM SCT250 23/19 A2984 RMK AO2 SLP085 T02330194

More Conditions Fewer Conditions

10-Day Weather Forecast

Almanac

Astronomy

Aug. 20, 2014 Rise Set
Actual Time 6:50 AM CDT 8:16 PM CDT
Civil Twilight 6:22 AM CDT 8:43 PM CDT
Nautical Twilight 5:49 AM CDT 9:16 PM CDT
Astronomical Twilight 5:14 AM CDT 9:51 PM CDT
Moon 2:32 AM CDT 5:00 PM CDT
Length of Visible Light 14h 21m
Length of Day
13h 26m
Tomorrow will be 2m 13s shorter.
Waning Crescent, 22% of the Moon is Illuminated
Today
Waning Crescent
Aug 25
New
Sep 2
First Quarter
Sep 8
Full
Sep 15
Last Quarter

Today's Extremes

State Highs State Lows

Community

WunderPhotos

Upload Photos

1,745,604 photos uploaded!

Nearby

Snow Depth

Station Depth Elevation
No new snow has been reported.

Earthquake Activity

City Distance Mag. Time & Date
Medford, Oklahoma 66 miles 2.5 7:09 AM CDT
2014-08-15
Langston, Oklahoma 130 miles 2.9 9:49 PM CDT
2014-08-14
Perry, Oklahoma 99 miles 2.7 6:20 PM CDT
2014-08-14
Perry, Oklahoma 99 miles 2.8 2:04 PM CDT
2014-08-14
Minimum magnitude displayed is 2.5.

Coastal Water Temperatures

Place Temperature
No Stations Reporting

Nearby Weather Stations